METAR Formatted Surface Weather Observation
Issued by NWS

Home | Current Version | Previous Version | Text Only | Print | Product List | Glossary On
Versions: 1 2 3 4 5 6 7 8 9 10 11
000
SAUS41 KBOX 280755
MTRMQE
METAR KMQE 280754Z AUTO 06010G19KT 14/14 A3008 RMK AO1 SLP194
T01390139



USA.gov is the U.S. government's official web portal to all federal, state and local government web resources and services.